map of IBA home
IBA - Airport
Location
City:  Ibadan, Oyo, Nigeria
Name:Ibadan Airport
ICAO:DNIB
IATA:IBA

Details
Type:Airport (Aerodrome, Airfield)
Use:Public/Civil
Latitude:721'45"N (7.362458)
Longitude:358'42"E (3.978333)
Datum:WGS 1984
Elevation:725 ft (221 m)
Variation:1.80W (WMM2015 magnetic declination)
0.10 annual change
Runways:1
Longest:7875 × 147 ft (2400 × 45 m), paved

Time
Time Zone:UTC+1
Local Time:

Weather
METAR:DNIB 190500Z 15003KT 7000 SCT010 24/23 Q1010

Related Locations
Nearby:
Farthest:FUN: 12112 mi / 19492 km
Funafuti Atoll [Intl], TV

Find:

   beyond  
but within

Other Information
Maps:
NOTAMs:
Links:
Sources:

  
  • flag of Nigeria
  

Sectional Chart

Flight Planning
at skyvector.com

Satellite Image

Google Maps Satellite view

 

Copyright © 2004-2018 Karl L. Swartz. All rights reserved.
The Great Circle Mapper name and logo are trademarks of the Great Circle Mapper.
All other trademarks mentioned herein belong to their respective owners.
Please see credits for attibutions and further copyright information.

  Follow gcmap on Facebook Follow gcmap on Twitter Follow gcmap on Google+ GCmap on LinkedIn

hCard Microformat

Geo Microformat